Time;durP1;ratioP1;P1;durP2;ratioP2;P2;SDS_P1;SDS_P2;PMS_P1;PMS_P2;Temp;Humidity;BMP_temperature;BMP_pressure;BME280_temperature;BME280_humidity;BME280_pressure;Samples;Min_cycle;Max_cycle;Signal;HPM_P1;HPM_P2
2020/12/14 00:01:44;;;;;;;7.10;3.42;;;4.00;99.90;;;;;;481774;245;27546;-73
2020/12/14 00:03:45;;;;;;;4.25;3.20;;;4.00;99.90;;;;;;481853;245;27520;-73
2020/12/14 00:05:46;;;;;;;5.82;3.58;;;4.10;99.90;;;;;;481875;245;27507;-73
2020/12/14 00:07:48;;;;;;;6.80;3.45;;;4.00;99.90;;;;;;481899;245;27997;-75
2020/12/14 00:09:49;;;;;;;7.43;3.70;;;4.00;99.90;;;;;;481782;245;27901;-73
2020/12/14 00:11:50;;;;;;;5.62;3.70;;;4.00;99.90;;;;;;481730;245;27546;-73
2020/12/14 00:13:51;;;;;;;5.20;3.40;;;3.90;99.90;;;;;;481901;245;27537;-73
2020/12/14 00:15:53;;;;;;;10.30;4.18;;;3.90;99.90;;;;;;481889;245;27624;-73
2020/12/14 00:17:54;;;;;;;5.18;3.20;;;4.00;99.90;;;;;;481950;245;27954;-73
2020/12/14 00:19:55;;;;;;;4.90;3.05;;;4.00;99.90;;;;;;481962;245;28020;-74
2020/12/14 00:21:56;;;;;;;8.48;3.60;;;4.00;99.90;;;;;;481913;245;29234;-75
2020/12/14 00:23:58;;;;;;;8.63;3.15;;;4.00;99.90;;;;;;481949;245;27981;-73
2020/12/14 00:25:59;;;;;;;3.50;3.00;;;4.00;99.90;;;;;;481900;245;27525;-74
2020/12/14 00:28:00;;;;;;;6.28;3.10;;;4.00;99.90;;;;;;481905;245;27493;-74
2020/12/14 00:30:01;;;;;;;5.03;3.67;;;4.00;99.90;;;;;;481813;245;27534;-76
2020/12/14 00:32:03;;;;;;;6.15;3.03;;;4.00;99.90;;;;;;481856;245;27541;-74
2020/12/14 00:34:04;;;;;;;5.50;3.00;;;4.00;99.90;;;;;;481890;245;27543;-73
2020/12/14 00:36:05;;;;;;;6.65;3.15;;;4.10;99.90;;;;;;481922;245;27905;-73
2020/12/14 00:38:06;;;;;;;4.57;3.03;;;4.10;99.90;;;;;;481888;246;27496;-73
2020/12/14 00:40:08;;;;;;;5.80;3.30;;;4.20;99.90;;;;;;481775;245;27651;-74
2020/12/14 00:42:09;;;;;;;6.03;3.22;;;4.20;99.90;;;;;;481866;245;27557;-74
2020/12/14 00:44:10;;;;;;;6.60;3.35;;;4.20;99.90;;;;;;481888;245;27556;-73
2020/12/14 00:46:12;;;;;;;6.28;2.75;;;4.20;99.90;;;;;;481980;245;28028;-74
2020/12/14 00:48:13;;;;;;;3.95;3.20;;;4.20;99.90;;;;;;482012;245;28008;-73
2020/12/14 00:50:14;;;;;;;4.65;3.25;;;4.20;99.90;;;;;;481909;245;27631;-73
2020/12/14 00:52:15;;;;;;;3.78;2.53;;;4.20;99.90;;;;;;482048;245;27525;-73
2020/12/14 00:54:16;;;;;;;4.43;2.85;;;4.20;99.90;;;;;;482060;245;27530;-72
2020/12/14 00:56:18;;;;;;;7.10;3.80;;;4.10;99.90;;;;;;482014;245;27601;-74
2020/12/14 00:58:19;;;;;;;6.47;3.90;;;4.10;99.90;;;;;;481888;245;27492;-73
2020/12/14 01:00:20;;;;;;;6.00;4.80;;;4.10;99.90;;;;;;482017;245;27521;-73
2020/12/14 01:02:22;;;;;;;4.47;3.85;;;4.10;99.90;;;;;;482057;245;27628;-74
2020/12/14 01:04:23;;;;;;;8.27;3.60;;;4.00;99.90;;;;;;482060;245;27528;-73
2020/12/14 01:06:24;;;;;;;5.20;3.75;;;4.00;99.90;;;;;;482063;245;27545;-73
2020/12/14 01:08:25;;;;;;;5.32;3.00;;;4.00;99.90;;;;;;482078;245;27496;-73
2020/12/14 01:10:27;;;;;;;6.07;3.22;;;4.00;99.90;;;;;;481961;245;27993;-73
2020/12/14 01:12:28;;;;;;;4.95;2.90;;;4.00;99.90;;;;;;481994;245;28819;-75
2020/12/14 01:14:29;;;;;;;5.62;3.37;;;3.90;99.90;;;;;;481968;246;29032;-73
2020/12/14 01:16:30;;;;;;;6.28;2.90;;;3.90;99.90;;;;;;481940;245;28112;-74
2020/12/14 01:18:31;;;;;;;6.90;3.10;;;3.90;99.90;;;;;;481945;245;27491;-73
2020/12/14 01:20:33;;;;;;;5.20;3.00;;;4.00;99.90;;;;;;481601;245;27555;-74
2020/12/14 01:22:34;;;;;;;3.90;2.75;;;3.90;99.90;;;;;;481879;245;27545;-73
2020/12/14 01:24:35;;;;;;;4.80;3.08;;;4.00;99.90;;;;;;481890;245;27522;-74
2020/12/14 01:26:36;;;;;;;4.80;2.92;;;3.90;99.90;;;;;;481880;245;27892;-73
2020/12/14 01:28:38;;;;;;;8.75;3.35;;;3.90;99.90;;;;;;481945;244;27506;-74
2020/12/14 01:30:39;;;;;;;3.67;2.78;;;4.00;99.90;;;;;;481846;245;27555;-74
2020/12/14 01:32:40;;;;;;;6.97;3.08;;;4.00;99.90;;;;;;481918;245;27544;-73
2020/12/14 01:34:41;;;;;;;5.28;3.30;;;4.00;99.90;;;;;;481880;245;27542;-73
2020/12/14 01:36:47;;;;;;;4.45;3.20;;;4.00;99.90;;;;;;481908;245;27528;-75
2020/12/14 01:38:44;;;;;;;5.30;3.30;;;3.90;99.90;;;;;;481639;246;28092;-74
2020/12/14 01:40:45;;;;;;;5.00;2.80;;;3.90;99.90;;;;;;481818;245;27998;-73
2020/12/14 01:42:50;;;;;;;5.57;3.03;;;3.90;99.90;;;;;;481885;245;29198;-73
2020/12/14 01:44:48;;;;;;;8.90;3.22;;;3.90;99.90;;;;;;481589;246;29111;-73
2020/12/14 01:46:49;;;;;;;5.20;3.33;;;3.90;99.90;;;;;;481879;245;27536;-73
2020/12/14 01:48:50;;;;;;;6.20;3.22;;;4.00;99.90;;;;;;481861;245;27551;-75
2020/12/14 01:50:51;;;;;;;5.82;3.42;;;4.00;99.90;;;;;;481867;246;27697;-75
2020/12/14 01:52:53;;;;;;;3.65;3.30;;;4.00;99.90;;;;;;481888;244;27616;-73
2020/12/14 01:54:54;;;;;;;4.05;2.80;;;4.00;99.90;;;;;;481946;245;27536;-73
2020/12/14 01:56:55;;;;;;;5.75;3.25;;;4.00;99.90;;;;;;482018;245;27507;-73
2020/12/14 01:58:56;;;;;;;5.78;3.83;;;3.90;99.90;;;;;;482020;245;27549;-73
2020/12/14 02:00:58;;;;;;;4.05;3.22;;;3.90;99.90;;;;;;481656;245;27536;-73
2020/12/14 02:02:59;;;;;;;7.82;3.40;;;3.90;99.90;;;;;;481883;245;27534;-73
2020/12/14 02:05:00;;;;;;;7.65;3.60;;;3.90;99.90;;;;;;481916;245;27536;-73
2020/12/14 02:07:02;;;;;;;5.78;4.05;;;3.90;99.90;;;;;;481937;245;27941;-73
2020/12/14 02:09:03;;;;;;;8.15;3.90;;;3.90;99.90;;;;;;481887;245;28095;-76
2020/12/14 02:11:04;;;;;;;7.07;3.55;;;3.90;99.90;;;;;;481867;245;28028;-73
2020/12/14 02:13:05;;;;;;;4.95;3.70;;;3.90;99.90;;;;;;481922;245;28023;-74
2020/12/14 02:15:06;;;;;;;4.20;3.80;;;3.90;99.90;;;;;;481894;245;27567;-74
2020/12/14 02:17:08;;;;;;;7.10;3.55;;;3.90;99.90;;;;;;481920;245;27606;-73
2020/12/14 02:19:09;;;;;;;4.75;3.95;;;4.00;99.90;;;;;;481887;245;27540;-74
2020/12/14 02:21:10;;;;;;;6.93;4.07;;;4.00;99.90;;;;;;481864;245;27530;-74
2020/12/14 02:23:11;;;;;;;8.88;3.35;;;4.10;99.90;;;;;;481944;245;27511;-74
2020/12/14 02:25:13;;;;;;;10.00;3.45;;;4.10;99.90;;;;;;482037;245;27527;-78
2020/12/14 02:27:14;;;;;;;5.40;3.33;;;4.10;99.90;;;;;;481648;245;27557;-75
2020/12/14 02:29:15;;;;;;;7.97;3.35;;;4.20;99.90;;;;;;481419;245;27552;-75
2020/12/14 02:31:16;;;;;;;5.68;3.58;;;4.30;99.90;;;;;;481371;245;27637;-75
2020/12/14 02:33:18;;;;;;;5.55;3.80;;;4.30;99.90;;;;;;481750;245;27972;-74
2020/12/14 02:35:19;;;;;;;7.57;3.60;;;4.30;99.90;;;;;;482056;245;28102;-73
2020/12/14 02:37:20;;;;;;;6.53;3.75;;;4.40;99.90;;;;;;482083;244;28035;-75
2020/12/14 02:39:21;;;;;;;6.90;3.83;;;4.40;99.90;;;;;;482073;245;29193;-73
2020/12/14 02:41:23;;;;;;;8.25;3.72;;;4.50;99.90;;;;;;482024;245;27616;-73
2020/12/14 02:43:24;;;;;;;6.15;3.53;;;4.50;99.90;;;;;;482100;245;27482;-73
2020/12/14 02:45:25;;;;;;;6.72;3.70;;;4.50;99.90;;;;;;482063;245;27517;-73
2020/12/14 02:47:26;;;;;;;7.95;4.00;;;4.50;99.90;;;;;;482051;245;27540;-73
2020/12/14 02:49:28;;;;;;;6.50;3.30;;;4.50;99.90;;;;;;481955;245;27550;-74
2020/12/14 02:51:29;;;;;;;6.12;3.50;;;4.60;99.90;;;;;;481842;245;27877;-77
2020/12/14 02:53:30;;;;;;;9.80;4.37;;;4.60;99.90;;;;;;481897;245;27591;-75
2020/12/14 02:55:31;;;;;;;5.75;3.75;;;4.60;99.90;;;;;;481915;245;27632;-74
2020/12/14 02:57:33;;;;;;;8.63;3.35;;;4.60;99.90;;;;;;481882;245;27485;-73
2020/12/14 02:59:34;;;;;;;3.92;3.53;;;4.70;99.90;;;;;;481880;245;27626;-73
2020/12/14 03:01:35;;;;;;;4.70;3.80;;;4.70;99.90;;;;;;481844;245;27980;-73
2020/12/14 03:03:36;;;;;;;8.90;4.65;;;4.70;99.90;;;;;;481896;245;28027;-73
2020/12/14 03:05:38;;;;;;;7.28;4.10;;;4.70;99.90;;;;;;481922;245;28023;-74
2020/12/14 03:07:39;;;;;;;8.23;3.60;;;4.60;99.90;;;;;;481835;245;27549;-73
2020/12/14 03:09:40;;;;;;;4.65;3.55;;;4.60;99.90;;;;;;481871;245;27530;-73
2020/12/14 03:11:41;;;;;;;5.90;3.50;;;4.70;99.90;;;;;;481703;241;27592;-78
2020/12/14 03:13:43;;;;;;;3.75;3.35;;;4.80;99.90;;;;;;481898;245;27629;-73
2020/12/14 03:15:44;;;;;;;7.30;3.62;;;4.80;99.90;;;;;;481948;245;27625;-73
2020/12/14 03:17:45;;;;;;;10.63;3.45;;;4.80;99.90;;;;;;481911;245;27975;-74
2020/12/14 03:19:46;;;;;;;7.78;3.60;;;4.90;99.90;;;;;;481879;242;27546;-73
2020/12/14 03:21:48;;;;;;;7.37;3.67;;;4.90;99.90;;;;;;481863;245;27560;-74
2020/12/14 03:23:49;;;;;;;8.40;3.37;;;4.90;99.90;;;;;;481888;245;28096;-73
2020/12/14 03:25:50;;;;;;;7.15;3.33;;;4.90;99.90;;;;;;481899;245;28051;-74
2020/12/14 03:27:52;;;;;;;7.82;4.00;;;4.90;99.90;;;;;;481900;245;28030;-74
2020/12/14 03:29:53;;;;;;;5.97;3.10;;;5.00;99.90;;;;;;481883;245;27542;-73
2020/12/14 03:31:54;;;;;;;6.43;3.30;;;5.00;99.90;;;;;;481848;245;27525;-73
2020/12/14 03:33:55;;;;;;;5.15;3.75;;;5.00;99.90;;;;;;481931;245;27534;-73
2020/12/14 03:35:57;;;;;;;11.07;4.60;;;5.00;99.90;;;;;;481969;245;27537;-75
2020/12/14 03:37:58;;;;;;;6.62;4.37;;;5.00;99.90;;;;;;482033;245;27499;-76
2020/12/14 03:39:59;;;;;;;6.18;3.72;;;5.00;99.90;;;;;;482007;246;27514;-76
2020/12/14 03:42:00;;;;;;;5.60;3.78;;;5.00;99.90;;;;;;482003;245;27533;-73
2020/12/14 03:44:02;;;;;;;5.55;3.30;;;5.00;99.90;;;;;;481823;245;27589;-73
2020/12/14 03:46:03;;;;;;;4.55;3.60;;;5.00;99.90;;;;;;481293;241;28086;-73
2020/12/14 03:48:04;;;;;;;7.32;3.40;;;5.00;99.90;;;;;;481905;244;28005;-73
2020/12/14 03:50:05;;;;;;;8.50;3.20;;;5.10;99.90;;;;;;481214;245;29221;-74
2020/12/14 03:52:07;;;;;;;7.82;3.95;;;5.10;99.90;;;;;;481694;245;27669;-76
2020/12/14 03:54:08;;;;;;;10.25;3.95;;;5.10;99.90;;;;;;481869;245;27589;-77
2020/12/14 03:56:09;;;;;;;5.53;3.97;;;5.10;99.90;;;;;;481898;245;27537;-76
2020/12/14 03:58:10;;;;;;;5.97;3.60;;;5.10;99.90;;;;;;481917;245;27652;-75
2020/12/14 04:00:12;;;;;;;7.45;3.33;;;5.10;99.90;;;;;;481817;245;27641;-76
2020/12/14 04:02:13;;;;;;;4.12;2.90;;;5.20;99.90;;;;;;481857;245;27522;-75
2020/12/14 04:04:14;;;;;;;6.25;3.15;;;5.20;99.90;;;;;;481928;245;27529;-75
2020/12/14 04:06:15;;;;;;;4.40;2.95;;;5.20;99.90;;;;;;481895;245;27537;-77
2020/12/14 04:08:17;;;;;;;4.05;2.70;;;5.20;99.90;;;;;;481907;245;27995;-76
2020/12/14 04:10:18;;;;;;;6.18;3.00;;;5.20;99.90;;;;;;481853;245;29146;-76
2020/12/14 04:12:19;;;;;;;5.90;3.12;;;5.20;99.90;;;;;;481919;245;27525;-75
2020/12/14 04:14:22;;;;;;;4.85;2.67;;;5.30;99.90;;;;;;481919;245;27521;-76
2020/12/14 04:16:22;;;;;;;4.95;2.83;;;5.30;99.90;;;;;;481871;246;27549;-77
2020/12/14 04:18:23;;;;;;;4.62;2.70;;;5.30;99.90;;;;;;482008;245;27614;-73
2020/12/14 04:20:24;;;;;;;4.80;2.80;;;5.40;99.90;;;;;;481991;245;27537;-73
2020/12/14 04:22:25;;;;;;;3.90;2.85;;;5.40;99.90;;;;;;481732;246;27603;-72
2020/12/14 04:24:27;;;;;;;6.20;3.10;;;5.30;99.90;;;;;;481936;245;27537;-76
2020/12/14 04:26:28;;;;;;;3.70;2.90;;;5.30;99.90;;;;;;481865;245;27551;-75
2020/12/14 04:28:29;;;;;;;5.37;3.00;;;5.30;99.90;;;;;;481948;245;27973;-73
2020/12/14 04:30:30;;;;;;;3.85;3.12;;;5.30;99.90;;;;;;482072;245;27992;-75
2020/12/14 04:32:32;;;;;;;5.30;3.00;;;5.40;99.90;;;;;;482111;245;28119;-73
2020/12/14 04:34:33;;;;;;;5.25;3.37;;;5.40;99.90;;;;;;482082;245;27541;-76
2020/12/14 04:36:34;;;;;;;5.72;3.45;;;5.40;99.90;;;;;;482098;245;27514;-75
2020/12/14 04:38:35;;;;;;;5.15;3.10;;;5.40;99.90;;;;;;482104;245;27485;-75
2020/12/14 04:40:37;;;;;;;4.12;3.08;;;5.40;99.90;;;;;;482027;245;27575;-77
2020/12/14 04:42:38;;;;;;;4.78;3.50;;;5.40;99.90;;;;;;482070;245;27492;-75
2020/12/14 04:44:39;;;;;;;7.37;3.50;;;5.40;99.90;;;;;;482071;245;27636;-75
2020/12/14 04:46:41;;;;;;;4.10;2.90;;;5.40;99.90;;;;;;482016;241;27521;-77
2020/12/14 04:48:42;;;;;;;6.70;3.30;;;5.40;99.90;;;;;;481952;245;27974;-75
2020/12/14 04:50:43;;;;;;;3.78;2.92;;;5.40;99.90;;;;;;481973;245;28109;-76
2020/12/14 04:52:44;;;;;;;9.05;3.15;;;5.50;99.90;;;;;;481964;246;28087;-76
2020/12/14 04:54:45;;;;;;;4.97;2.97;;;5.50;99.90;;;;;;481737;241;27530;-75
2020/12/14 04:56:47;;;;;;;5.25;3.03;;;5.50;99.90;;;;;;481643;244;27552;-76
2020/12/14 04:58:48;;;;;;;3.45;2.90;;;5.50;99.90;;;;;;481861;245;27629;-75
2020/12/14 05:00:49;;;;;;;5.65;3.20;;;5.50;99.90;;;;;;481975;245;27548;-76
2020/12/14 05:02:50;;;;;;;4.80;2.95;;;5.50;99.90;;;;;;481980;246;27604;-75
2020/12/14 05:04:52;;;;;;;4.32;3.20;;;5.50;99.90;;;;;;481940;245;27571;-76
2020/12/14 05:06:53;;;;;;;4.30;3.00;;;5.50;99.90;;;;;;482091;245;27644;-76
2020/12/14 05:08:54;;;;;;;4.40;3.22;;;5.50;99.90;;;;;;481996;245;27948;-76
2020/12/14 05:10:55;;;;;;;5.20;3.35;;;5.50;99.90;;;;;;482025;245;28001;-76
2020/12/14 05:12:57;;;;;;;4.75;3.00;;;5.50;99.90;;;;;;482038;245;27963;-75
2020/12/14 05:14:58;;;;;;;4.95;3.30;;;5.50;99.90;;;;;;482075;245;27617;-76
2020/12/14 05:16:59;;;;;;;8.30;3.20;;;5.50;99.90;;;;;;482054;246;27493;-76
2020/12/14 05:19:00;;;;;;;5.15;3.15;;;5.50;99.90;;;;;;481514;245;27534;-76
2020/12/14 05:21:02;;;;;;;8.50;3.53;;;5.40;99.90;;;;;;481586;245;27559;-75
2020/12/14 05:23:03;;;;;;;3.90;2.95;;;5.40;99.90;;;;;;481884;245;28037;-77
2020/12/14 05:25:04;;;;;;;4.45;3.05;;;5.40;99.90;;;;;;481862;245;27537;-76
2020/12/14 05:27:05;;;;;;;5.50;3.25;;;5.40;99.90;;;;;;481877;245;27986;-75
2020/12/14 05:29:07;;;;;;;8.77;3.08;;;5.40;99.90;;;;;;481912;245;28008;-75
2020/12/14 05:31:08;;;;;;;5.45;3.40;;;5.40;99.90;;;;;;481871;245;28078;-75
2020/12/14 05:33:09;;;;;;;5.53;3.40;;;5.40;99.90;;;;;;481892;245;27596;-76
2020/12/14 05:35:11;;;;;;;5.03;3.50;;;5.40;99.90;;;;;;481905;245;27608;-76
2020/12/14 05:37:12;;;;;;;4.50;3.40;;;5.40;99.90;;;;;;481895;245;27656;-75
2020/12/14 05:39:13;;;;;;;4.55;2.95;;;5.40;99.90;;;;;;481845;245;27538;-75
2020/12/14 05:41:14;;;;;;;4.57;2.80;;;5.30;99.90;;;;;;481803;246;27512;-75
2020/12/14 05:43:15;;;;;;;6.68;3.10;;;5.30;99.90;;;;;;481918;245;27602;-76
2020/12/14 05:45:17;;;;;;;4.82;3.25;;;5.30;99.90;;;;;;482007;245;27549;-76
2020/12/14 05:47:18;;;;;;;3.60;3.30;;;5.30;99.90;;;;;;482044;245;27977;-75
2020/12/14 05:49:19;;;;;;;6.15;2.72;;;5.30;99.90;;;;;;482114;245;27576;-77
2020/12/14 05:51:21;;;;;;;7.97;3.20;;;5.40;99.90;;;;;;481980;241;27593;-75
2020/12/14 05:53:22;;;;;;;5.45;3.17;;;5.40;99.90;;;;;;481889;245;27541;-75
2020/12/14 05:55:23;;;;;;;3.45;2.50;;;5.40;99.90;;;;;;481903;245;27643;-76
2020/12/14 05:57:24;;;;;;;4.43;3.17;;;5.40;99.90;;;;;;481943;245;27510;-75
2020/12/14 05:59:26;;;;;;;4.15;3.15;;;5.40;99.90;;;;;;482020;245;27718;-76
2020/12/14 06:01:27;;;;;;;5.62;3.40;;;5.40;99.90;;;;;;482015;245;27557;-75
2020/12/14 06:03:28;;;;;;;3.70;2.90;;;5.40;99.90;;;;;;482071;245;27632;-73
2020/12/14 06:05:29;;;;;;;5.45;3.03;;;5.40;99.90;;;;;;482085;245;28075;-75
2020/12/14 06:07:31;;;;;;;5.25;3.67;;;5.40;99.90;;;;;;482093;245;28058;-73
2020/12/14 06:09:32;;;;;;;4.75;3.50;;;5.40;99.90;;;;;;482091;245;28013;-75
2020/12/14 06:11:33;;;;;;;8.07;3.40;;;5.40;99.90;;;;;;482050;245;27489;-75
2020/12/14 06:13:34;;;;;;;3.80;2.90;;;5.30;99.90;;;;;;482081;245;27530;-75
2020/12/14 06:15:36;;;;;;;5.15;2.75;;;5.40;99.90;;;;;;482051;245;27543;-76
2020/12/14 06:17:37;;;;;;;2.92;2.62;;;5.40;99.90;;;;;;482063;245;27557;-75
2020/12/14 06:19:38;;;;;;;6.07;2.90;;;5.30;99.90;;;;;;482068;245;27547;-76
2020/12/14 06:21:39;;;;;;;4.87;3.75;;;5.30;99.90;;;;;;482028;241;27507;-75
2020/12/14 06:23:41;;;;;;;3.47;2.90;;;5.30;99.90;;;;;;481953;245;27532;-76
2020/12/14 06:25:42;;;;;;;3.65;2.62;;;5.30;99.90;;;;;;482022;245;27561;-77
2020/12/14 06:27:43;;;;;;;2.70;2.50;;;5.40;99.90;;;;;;481978;245;27953;-75
2020/12/14 06:29:44;;;;;;;3.53;2.62;;;5.40;99.90;;;;;;481936;245;28150;-75
2020/12/14 06:31:46;;;;;;;2.95;2.62;;;5.40;99.90;;;;;;481870;245;27939;-75
2020/12/14 06:33:47;;;;;;;2.97;2.60;;;5.50;99.90;;;;;;482001;245;27536;-75
2020/12/14 06:35:49;;;;;;;3.37;2.50;;;5.50;99.90;;;;;;482042;245;27608;-75
2020/12/14 06:37:49;;;;;;;3.33;2.65;;;5.60;99.90;;;;;;482060;245;27493;-75
2020/12/14 06:39:51;;;;;;;6.70;3.30;;;5.60;99.90;;;;;;482036;245;27528;-76
2020/12/14 06:41:52;;;;;;;3.83;2.62;;;5.60;99.90;;;;;;481997;245;27899;-76
2020/12/14 06:43:53;;;;;;;4.15;2.72;;;5.60;99.90;;;;;;482035;245;27497;-76
2020/12/14 06:45:54;;;;;;;4.00;2.58;;;5.70;99.90;;;;;;482035;245;27965;-73
2020/12/14 06:47:56;;;;;;;2.83;2.62;;;5.70;99.90;;;;;;481990;245;28014;-73
2020/12/14 06:49:57;;;;;;;3.97;2.92;;;5.80;99.90;;;;;;481960;245;28121;-73
2020/12/14 06:51:58;;;;;;;4.03;2.58;;;5.70;99.90;;;;;;481464;245;27562;-75
2020/12/14 06:54:00;;;;;;;4.85;2.92;;;5.70;99.90;;;;;;481779;245;27519;-74
2020/12/14 06:56:01;;;;;;;5.68;2.40;;;5.80;99.90;;;;;;481793;245;27526;-76
2020/12/14 06:58:02;;;;;;;3.85;2.40;;;5.80;99.90;;;;;;481783;245;27551;-73
2020/12/14 07:00:03;;;;;;;4.43;2.75;;;5.80;99.90;;;;;;481784;245;27576;-73
2020/12/14 07:02:05;;;;;;;4.32;2.60;;;5.80;99.90;;;;;;481787;245;27544;-77
2020/12/14 07:04:06;;;;;;;5.20;2.53;;;5.70;99.90;;;;;;481830;245;27542;-77
2020/12/14 07:06:07;;;;;;;3.90;2.50;;;5.70;99.90;;;;;;481835;245;27992;-76
2020/12/14 07:08:08;;;;;;;3.37;2.33;;;5.70;99.90;;;;;;481885;245;28152;-76
2020/12/14 07:10:09;;;;;;;4.10;2.05;;;5.60;99.90;;;;;;481905;245;27995;-75
2020/12/14 07:12:11;;;;;;;4.62;2.55;;;5.60;99.90;;;;;;481993;245;27553;-76
2020/12/14 07:14:12;;;;;;;2.80;2.55;;;5.60;99.90;;;;;;482024;245;27593;-75
2020/12/14 07:16:13;;;;;;;4.05;2.87;;;5.60;99.90;;;;;;482089;245;27604;-75
2020/12/14 07:18:16;;;;;;;5.18;3.00;;;5.50;99.90;;;;;;482059;245;27525;-76
2020/12/14 07:20:16;;;;;;;5.37;2.70;;;5.50;99.90;;;;;;481938;246;27497;-76
2020/12/14 07:22:17;;;;;;;3.40;2.40;;;5.50;99.90;;;;;;482089;245;27545;-74
2020/12/14 07:24:18;;;;;;;5.07;2.60;;;5.60;99.90;;;;;;482115;246;27501;-75
2020/12/14 07:26:19;;;;;;;4.90;2.80;;;5.60;99.90;;;;;;482059;245;28014;-72
2020/12/14 07:28:21;;;;;;;4.90;2.00;;;5.60;99.90;;;;;;482117;245;28016;-74
2020/12/14 07:30:22;;;;;;;4.72;2.35;;;5.50;99.90;;;;;;482023;245;27523;-73
2020/12/14 07:32:23;;;;;;;2.53;2.28;;;5.60;99.90;;;;;;482021;245;27516;-73
2020/12/14 07:34:24;;;;;;;2.78;2.30;;;5.60;99.90;;;;;;481962;245;27526;-72
2020/12/14 07:36:26;;;;;;;6.22;2.40;;;5.60;99.90;;;;;;481916;245;27549;-72
2020/12/14 07:38:27;;;;;;;2.50;2.30;;;5.60;99.90;;;;;;481927;241;27537;-73
2020/12/14 07:40:28;;;;;;;3.78;2.45;;;5.50;99.90;;;;;;481917;245;27612;-73
2020/12/14 07:42:29;;;;;;;5.57;2.35;;;5.50;99.90;;;;;;481920;245;28048;-75
2020/12/14 07:44:31;;;;;;;2.80;2.25;;;5.50;99.90;;;;;;481896;245;28110;-76
2020/12/14 07:46:33;;;;;;;2.65;2.20;;;5.50;99.90;;;;;;481871;245;28023;-76
2020/12/14 07:48:33;;;;;;;3.30;2.20;;;5.50;99.90;;;;;;481880;245;27541;-75
2020/12/14 07:50:34;;;;;;;3.03;2.22;;;5.50;99.90;;;;;;481856;245;27525;-75
2020/12/14 07:52:36;;;;;;;4.18;2.30;;;5.60;99.90;;;;;;481929;245;27536;-77
2020/12/14 07:54:37;;;;;;;4.03;2.58;;;5.60;99.90;;;;;;481984;245;27619;-75
2020/12/14 07:56:38;;;;;;;3.03;2.35;;;5.50;99.90;;;;;;481965;245;27594;-73
2020/12/14 07:58:40;;;;;;;2.90;2.20;;;5.60;99.90;;;;;;481959;245;27603;-73
2020/12/14 08:00:41;;;;;;;2.33;2.12;;;5.60;99.90;;;;;;481890;245;27526;-74
2020/12/14 08:02:42;;;;;;;2.30;2.10;;;5.60;99.90;;;;;;481959;245;28069;-73
2020/12/14 08:04:44;;;;;;;3.30;2.50;;;5.60;99.90;;;;;;482024;245;28054;-74
2020/12/14 08:06:45;;;;;;;2.60;2.40;;;5.50;99.90;;;;;;482009;245;27509;-73
2020/12/14 08:08:46;;;;;;;3.20;2.35;;;5.50;99.90;;;;;;481974;245;27542;-75
2020/12/14 08:10:47;;;;;;;3.40;2.30;;;5.60;99.90;;;;;;481890;245;27621;-77
2020/12/14 08:12:48;;;;;;;3.65;2.28;;;5.60;99.90;;;;;;481907;245;27501;-76
2020/12/14 08:14:50;;;;;;;3.00;2.70;;;5.60;99.90;;;;;;481839;245;27625;-76
2020/12/14 08:16:51;;;;;;;3.40;2.50;;;5.60;99.90;;;;;;481802;245;27558;-75
2020/12/14 08:18:52;;;;;;;3.00;2.40;;;5.60;99.90;;;;;;481850;245;27553;-76
2020/12/14 08:20:54;;;;;;;3.92;2.90;;;5.60;99.90;;;;;;481879;245;28112;-76
2020/12/14 08:22:56;;;;;;;2.50;2.30;;;5.60;99.90;;;;;;481910;245;27960;-75
2020/12/14 08:24:56;;;;;;;2.35;2.12;;;5.60;99.90;;;;;;481778;246;27561;-75
2020/12/14 08:26:57;;;;;;;4.10;2.42;;;5.70;99.90;;;;;;481928;245;27571;-76
2020/12/14 08:28:58;;;;;;;3.40;3.00;;;5.60;99.90;;;;;;482010;245;27584;-75
2020/12/14 08:31:00;;;;;;;2.70;2.40;;;5.60;99.90;;;;;;482014;245;27631;-76
2020/12/14 08:33:01;;;;;;;3.22;2.42;;;5.60;99.90;;;;;;482026;245;27637;-76
2020/12/14 08:35:02;;;;;;;2.92;2.65;;;5.70;99.90;;;;;;482000;245;27556;-75
2020/12/14 08:37:03;;;;;;;2.20;2.00;;;5.70;99.90;;;;;;482034;245;27695;-75
2020/12/14 08:39:05;;;;;;;4.72;2.20;;;5.70;99.90;;;;;;482046;245;27969;-75
2020/12/14 08:41:06;;;;;;;4.95;2.62;;;5.70;99.90;;;;;;481999;245;28122;-75
2020/12/14 08:43:07;;;;;;;6.30;2.60;;;5.70;99.90;;;;;;482031;245;28544;-75
2020/12/14 08:45:08;;;;;;;2.83;2.10;;;5.80;99.90;;;;;;482012;245;27630;-75
2020/12/14 08:47:10;;;;;;;3.47;2.60;;;5.70;99.90;;;;;;482031;245;27534;-77
2020/12/14 08:49:11;;;;;;;2.62;2.37;;;5.80;99.90;;;;;;482053;245;27588;-75
2020/12/14 08:51:12;;;;;;;3.47;2.45;;;5.80;99.90;;;;;;482009;245;27591;-75
2020/12/14 08:53:13;;;;;;;3.03;2.45;;;5.90;99.90;;;;;;482011;245;27660;-75
2020/12/14 08:55:15;;;;;;;2.80;2.60;;;5.90;99.90;;;;;;482027;245;27592;-75
2020/12/14 08:57:16;;;;;;;2.62;2.42;;;5.90;99.90;;;;;;482008;245;28034;-76
2020/12/14 08:59:17;;;;;;;2.62;2.08;;;6.00;99.90;;;;;;481925;245;27999;-76
2020/12/14 09:01:18;;;;;;;2.92;2.45;;;6.00;99.90;;;;;;481849;245;28040;-75
2020/12/14 09:03:20;;;;;;;2.10;1.90;;;6.10;99.90;;;;;;481860;245;27622;-77
2020/12/14 09:05:23;;;;;;;3.28;2.22;;;6.10;99.90;;;;;;481908;245;27521;-75
2020/12/14 09:07:22;;;;;;;4.37;2.42;;;6.30;99.90;;;;;;481760;245;27534;-76
2020/12/14 09:09:23;;;;;;;4.00;2.55;;;6.30;99.90;;;;;;481918;245;27503;-75
2020/12/14 09:11:28;;;;;;;2.92;2.10;;;6.40;99.90;;;;;;481886;245;27540;-76
2020/12/14 09:13:26;;;;;;;2.60;2.40;;;6.40;99.90;;;;;;481692;246;27532;-76
2020/12/14 09:15:27;;;;;;;2.25;2.05;;;6.50;99.90;;;;;;481908;245;28028;-75
2020/12/14 09:17:28;;;;;;;3.85;2.30;;;6.60;99.90;;;;;;481949;245;27539;-77
2020/12/14 09:19:30;;;;;;;3.58;2.28;;;6.60;99.90;;;;;;481920;245;27538;-75
2020/12/14 09:21:32;;;;;;;3.03;2.10;;;6.70;99.90;;;;;;481897;245;27636;-76
2020/12/14 09:23:32;;;;;;;3.35;2.00;;;6.70;99.90;;;;;;481881;245;27536;-76
2020/12/14 09:25:33;;;;;;;2.45;1.90;;;6.80;99.90;;;;;;481948;245;27531;-75
2020/12/14 09:27:35;;;;;;;3.50;2.20;;;6.70;99.90;;;;;;481963;245;27540;-76
2020/12/14 09:29:36;;;;;;;1.90;1.80;;;6.70;99.90;;;;;;481996;245;27997;-76
2020/12/14 09:31:38;;;;;;;2.00;1.90;;;6.70;99.90;;;;;;481949;245;28010;-76
2020/12/14 09:33:39;;;;;;;2.80;2.10;;;6.70;99.90;;;;;;481991;245;27551;-75
2020/12/14 09:35:40;;;;;;;3.15;1.90;;;6.70;99.90;;;;;;482085;245;27499;-75
2020/12/14 09:37:41;;;;;;;3.10;1.90;;;6.70;99.90;;;;;;482069;245;27621;-76
2020/12/14 09:39:43;;;;;;;1.90;1.80;;;6.70;99.90;;;;;;482085;245;27535;-75
2020/12/14 09:41:44;;;;;;;2.67;2.25;;;6.70;99.90;;;;;;482202;245;27974;-75
2020/12/14 09:43:45;;;;;;;3.20;1.98;;;6.70;99.90;;;;;;482274;245;27942;-76
2020/12/14 09:45:46;;;;;;;3.55;2.17;;;6.80;99.90;;;;;;482279;245;27604;-76
2020/12/14 09:47:48;;;;;;;2.78;2.03;;;6.70;99.90;;;;;;482284;246;27504;-78
2020/12/14 09:49:49;;;;;;;2.58;2.20;;;6.80;99.90;;;;;;482256;244;27514;-76
2020/12/14 09:51:50;;;;;;;5.85;1.90;;;6.80;99.90;;;;;;482223;245;27588;-76
2020/12/14 09:53:51;;;;;;;2.70;1.60;;;6.90;99.90;;;;;;481920;245;27544;-76
2020/12/14 09:55:52;;;;;;;2.45;2.10;;;6.90;99.90;;;;;;481953;245;28021;-77
2020/12/14 09:57:54;;;;;;;2.20;2.10;;;7.00;99.90;;;;;;481877;245;28117;-75
2020/12/14 09:59:55;;;;;;;3.70;1.90;;;7.10;99.90;;;;;;481922;245;27599;-76
2020/12/14 10:01:56;;;;;;;3.70;1.77;;;7.20;99.90;;;;;;481851;245;28766;-76
2020/12/14 10:03:57;;;;;;;2.00;1.90;;;7.30;99.90;;;;;;481907;245;28020;-75
2020/12/14 10:05:59;;;;;;;3.03;1.90;;;7.40;99.90;;;;;;481970;245;28085;-77
2020/12/14 10:08:00;;;;;;;1.90;1.80;;;7.50;99.90;;;;;;481853;245;27966;-76
2020/12/14 10:10:01;;;;;;;3.10;1.80;;;7.70;99.90;;;;;;481991;245;27539;-76
2020/12/14 10:12:02;;;;;;;1.97;1.77;;;7.80;99.90;;;;;;481941;245;28683;-77
2020/12/14 10:14:04;;;;;;;2.23;2.03;;;7.90;99.90;;;;;;481969;245;28179;-75
2020/12/14 10:16:05;;;;;;;1.80;1.70;;;8.00;99.90;;;;;;481995;245;28120;-76
2020/12/14 10:18:06;;;;;;;2.90;1.90;;;8.00;99.90;;;;;;482028;245;28548;-75
2020/12/14 10:20:07;;;;;;;2.13;1.67;;;8.10;99.90;;;;;;481993;245;28532;-76
2020/12/14 10:22:09;;;;;;;4.73;2.00;;;8.10;99.90;;;;;;482054;245;28566;-77
2020/12/14 10:24:10;;;;;;;3.43;2.13;;;8.20;99.90;;;;;;482098;245;28424;-75
2020/12/14 10:26:11;;;;;;;2.67;1.90;;;8.20;99.90;;;;;;482088;245;28482;-76
2020/12/14 10:28:12;;;;;;;2.30;1.97;;;8.20;99.90;;;;;;482155;245;27965;-76
2020/12/14 10:30:14;;;;;;;3.70;2.20;;;8.30;99.90;;;;;;482096;245;27867;-76
2020/12/14 10:32:15;;;;;;;1.90;1.50;;;8.40;99.90;;;;;;482132;245;27989;-77
2020/12/14 10:34:16;;;;;;;2.60;1.70;;;8.50;99.90;;;;;;482105;245;27587;-76
2020/12/14 10:36:21;;;;;;;1.63;1.53;;;8.50;99.90;;;;;;482115;245;28246;-76
2020/12/14 10:38:19;;;;;;;2.70;1.90;;;8.50;99.90;;;;;;481836;242;27933;-76
2020/12/14 10:40:20;;;;;;;2.93;1.77;;;8.50;99.90;;;;;;481838;244;27885;-76